Time;durP1;ratioP1;P1;durP2;ratioP2;P2;SDS_P1;SDS_P2;PMS_P1;PMS_P2;Temp;Humidity;BMP_temperature;BMP_pressure;BME280_temperature;BME280_humidity;BME280_pressure;Samples;Min_cycle;Max_cycle;Signal;HPM_P1;HPM_P2
2022/01/29 00:01:31;;;;;;;0.50;0.50;;;;;;;;;;5054558;28;20044;-37
2022/01/29 00:03:57;;;;;;;0.82;0.45;;;;;;;;;;5054322;28;20043;-37
2022/01/29 00:06:22;;;;;;;0.52;0.30;;;;;;;;;;5052831;28;20108;-37
2022/01/29 00:08:48;;;;;;;1.17;0.82;;;;;;;;;;5054351;28;20024;-37
2022/01/29 00:11:15;;;;;;;1.58;0.73;;;;;;;;;;5054435;28;20471;-37
2022/01/29 00:13:41;;;;;;;1.50;1.02;;;;;;;;;;5054211;28;20028;-37
2022/01/29 00:16:06;;;;;;;1.95;0.70;;;;;;;;;;5054025;28;20043;-37
2022/01/29 00:18:32;;;;;;;3.63;0.98;;;;;;;;;;5054117;28;20108;-37
2022/01/29 00:20:57;;;;;;;0.60;0.60;;;;;;;;;;5053967;28;20086;-37
2022/01/29 00:23:23;;;;;;;0.50;0.50;;;;;;;;;;5053369;28;20111;-37
2022/01/29 00:25:48;;;;;;;0.40;0.40;;;;;;;;;;5053954;28;20021;-37
2022/01/29 00:28:14;;;;;;;1.95;0.75;;;;;;;;;;5053895;28;20356;-37
2022/01/29 00:30:43;;;;;;;0.57;0.57;;;;;;;;;;5054154;28;20032;-37
2022/01/29 00:33:09;;;;;;;1.40;0.85;;;;;;;;;;5053804;28;20380;-37
2022/01/29 00:35:34;;;;;;;1.10;1.00;;;;;;;;;;5053820;28;20040;-37
2022/01/29 00:38:00;;;;;;;2.47;1.48;;;;;;;;;;5053769;28;20017;-37
2022/01/29 00:40:25;;;;;;;0.93;0.70;;;;;;;;;;5053680;28;20039;-38
2022/01/29 00:42:51;;;;;;;0.47;0.45;;;;;;;;;;5053844;28;20037;-37
2022/01/29 00:45:16;;;;;;;0.88;0.70;;;;;;;;;;5053563;28;20020;-37
2022/01/29 00:47:42;;;;;;;1.63;0.80;;;;;;;;;;5053468;28;20067;-37
2022/01/29 00:50:11;;;;;;;0.73;0.73;;;;;;;;;;5053375;28;20087;-37
2022/01/29 00:52:38;;;;;;;2.90;0.77;;;;;;;;;;5053467;28;20065;-37
2022/01/29 00:55:05;;;;;;;3.85;0.85;;;;;;;;;;5053341;28;20029;-37
2022/01/29 00:57:32;;;;;;;0.73;0.60;;;;;;;;;;5053655;28;20025;-37
2022/01/29 00:59:58;;;;;;;3.65;0.73;;;;;;;;;;5053611;28;20056;-37
2022/01/29 01:02:23;;;;;;;0.60;0.43;;;;;;;;;;5053319;28;20040;-37
2022/01/29 01:04:49;;;;;;;0.52;0.47;;;;;;;;;;5053192;28;20181;-37
2022/01/29 01:07:14;;;;;;;0.60;0.60;;;;;;;;;;5053047;28;20029;-37
2022/01/29 01:09:40;;;;;;;0.70;0.70;;;;;;;;;;5053164;28;20025;-37
2022/01/29 01:12:05;;;;;;;0.57;0.57;;;;;;;;;;5053024;28;20443;-37
2022/01/29 01:14:31;;;;;;;0.35;0.35;;;;;;;;;;5052121;28;20033;-37
2022/01/29 01:16:56;;;;;;;0.63;0.57;;;;;;;;;;5052967;28;20013;-37
2022/01/29 01:19:25;;;;;;;1.20;0.73;;;;;;;;;;5053123;28;20432;-37
2022/01/29 01:21:54;;;;;;;0.77;0.60;;;;;;;;;;5035014;28;20104;-37
2022/01/29 01:24:20;;;;;;;2.33;1.02;;;;;;;;;;5053038;28;20131;-37
2022/01/29 01:26:45;;;;;;;2.40;1.05;;;;;;;;;;5052791;28;20067;-37
2022/01/29 01:29:10;;;;;;;1.08;0.70;;;;;;;;;;5051463;28;20033;-37
2022/01/29 01:31:37;;;;;;;0.82;0.80;;;;;;;;;;5052959;28;20103;-37
2022/01/29 01:34:04;;;;;;;1.42;0.57;;;;;;;;;;5052486;28;20029;-37
2022/01/29 01:36:30;;;;;;;0.50;0.50;;;;;;;;;;5052575;28;20033;-37
2022/01/29 01:39:03;;;;;;;1.08;0.80;;;;;;;;;;5052579;28;20035;-37
2022/01/29 01:41:35;;;;;;;1.50;0.88;;;;;;;;;;5052341;28;20045;-37
2022/01/29 01:44:01;;;;;;;1.35;0.60;;;;;;;;;;5052382;28;20068;-37
2022/01/29 01:46:28;;;;;;;1.05;0.50;;;;;;;;;;5052343;28;20052;-37
2022/01/29 01:48:54;;;;;;;0.55;0.55;;;;;;;;;;5052357;28;20037;-37
2022/01/29 01:51:19;;;;;;;1.65;0.93;;;;;;;;;;5050988;28;20078;-37
2022/01/29 01:53:44;;;;;;;3.40;0.77;;;;;;;;;;5052557;28;20036;-37
2022/01/29 01:56:10;;;;;;;0.73;0.73;;;;;;;;;;5052077;28;20021;-37
2022/01/29 01:58:35;;;;;;;0.93;0.75;;;;;;;;;;5052323;28;20037;-37
2022/01/29 02:01:01;;;;;;;0.45;0.43;;;;;;;;;;5052179;28;20018;-37
2022/01/29 02:03:26;;;;;;;0.65;0.47;;;;;;;;;;5051983;28;20037;-37
2022/01/29 02:05:52;;;;;;;0.60;0.55;;;;;;;;;;5052047;28;20032;-37
2022/01/29 02:08:17;;;;;;;1.95;0.63;;;;;;;;;;5052190;28;20033;-37
2022/01/29 02:10:47;;;;;;;3.10;0.93;;;;;;;;;;5050731;28;20076;-37
2022/01/29 02:13:13;;;;;;;0.82;0.82;;;;;;;;;;5051846;28;20028;-37
2022/01/29 02:15:38;;;;;;;4.50;0.93;;;;;;;;;;5051885;28;20039;-37
2022/01/29 02:18:05;;;;;;;0.65;0.65;;;;;;;;;;5052241;28;20199;-37
2022/01/29 02:20:31;;;;;;;1.70;0.82;;;;;;;;;;5051772;28;20455;-37
2022/01/29 02:22:57;;;;;;;0.50;0.47;;;;;;;;;;5051756;28;20045;-37
2022/01/29 02:25:29;;;;;;;0.60;0.60;;;;;;;;;;5051709;28;20348;-37
2022/01/29 02:27:55;;;;;;;1.10;0.70;;;;;;;;;;5051726;28;20098;-37
2022/01/29 02:30:21;;;;;;;6.70;1.10;;;;;;;;;;5051609;28;20050;-37
2022/01/29 02:32:46;;;;;;;0.95;0.80;;;;;;;;;;5051873;28;20541;-37
2022/01/29 02:35:11;;;;;;;1.70;0.43;;;;;;;;;;5050287;28;20546;-37
2022/01/29 02:37:39;;;;;;;1.15;1.00;;;;;;;;;;5051748;28;20041;-37
2022/01/29 02:40:05;;;;;;;1.45;0.75;;;;;;;;;;5051451;28;20033;-37
2022/01/29 02:42:30;;;;;;;1.10;0.82;;;;;;;;;;5050001;28;20051;-37
2022/01/29 02:44:56;;;;;;;2.00;0.65;;;;;;;;;;5049917;28;20487;-37
2022/01/29 02:47:30;;;;;;;1.00;0.70;;;;;;;;;;5051668;28;20040;-37
2022/01/29 02:49:56;;;;;;;2.15;0.50;;;;;;;;;;5051606;28;20036;-37
2022/01/29 02:52:21;;;;;;;0.80;0.60;;;;;;;;;;5051405;28;20421;-37
2022/01/29 02:54:47;;;;;;;1.17;0.73;;;;;;;;;;5051646;28;20036;-37
2022/01/29 02:57:12;;;;;;;2.58;1.10;;;;;;;;;;5051117;28;20013;-37
2022/01/29 02:59:38;;;;;;;1.55;1.42;;;;;;;;;;5051616;28;20029;-37
2022/01/29 03:02:03;;;;;;;1.33;1.05;;;;;;;;;;5051216;28;20013;-37
2022/01/29 03:04:29;;;;;;;2.45;1.20;;;;;;;;;;5051331;28;20494;-37
2022/01/29 03:06:54;;;;;;;1.60;1.17;;;;;;;;;;5051229;28;20013;-37
2022/01/29 03:09:19;;;;;;;1.45;0.90;;;;;;;;;;5051370;28;20057;-37
2022/01/29 03:11:45;;;;;;;2.30;1.00;;;;;;;;;;5051365;28;20499;-37
2022/01/29 03:14:10;;;;;;;1.95;0.70;;;;;;;;;;5051331;28;20029;-37
2022/01/29 03:16:36;;;;;;;3.80;0.75;;;;;;;;;;5049740;28;20032;-37
2022/01/29 03:19:01;;;;;;;0.80;0.80;;;;;;;;;;5051390;28;20040;-37
2022/01/29 03:21:26;;;;;;;1.35;0.73;;;;;;;;;;5051247;28;20464;-37
2022/01/29 03:23:52;;;;;;;1.35;0.80;;;;;;;;;;5051260;28;20072;-37
2022/01/29 03:26:17;;;;;;;2.67;0.70;;;;;;;;;;5050942;28;20382;-37
2022/01/29 03:28:43;;;;;;;2.03;0.77;;;;;;;;;;5051319;28;20029;-37
2022/01/29 03:31:08;;;;;;;1.20;1.10;;;;;;;;;;5051205;28;20048;-37
2022/01/29 03:33:34;;;;;;;2.95;1.08;;;;;;;;;;5051212;28;20048;-37
2022/01/29 03:35:59;;;;;;;1.55;0.77;;;;;;;;;;5050883;28;20498;-37
2022/01/29 03:38:24;;;;;;;1.15;0.80;;;;;;;;;;5051061;28;20113;-37
2022/01/29 03:40:51;;;;;;;2.05;0.63;;;;;;;;;;5051008;28;20072;-37
2022/01/29 03:43:25;;;;;;;2.13;0.70;;;;;;;;;;5050846;28;20475;-37
2022/01/29 03:45:51;;;;;;;1.00;0.82;;;;;;;;;;5050931;28;20383;-37
2022/01/29 03:48:16;;;;;;;0.40;0.40;;;;;;;;;;5050829;28;20032;-37
2022/01/29 03:50:41;;;;;;;1.63;0.90;;;;;;;;;;5049682;28;20048;-37
2022/01/29 03:53:07;;;;;;;0.85;0.60;;;;;;;;;;5050955;28;20060;-37
2022/01/29 03:55:32;;;;;;;1.55;0.77;;;;;;;;;;5051090;28;20033;-37
2022/01/29 03:57:58;;;;;;;0.52;0.52;;;;;;;;;;5054498;28;20017;-37
2022/01/29 04:00:23;;;;;;;0.90;0.82;;;;;;;;;;5054359;28;20060;-37
2022/01/29 04:02:49;;;;;;;0.60;0.60;;;;;;;;;;5054406;28;20116;-37
2022/01/29 04:05:14;;;;;;;3.08;0.85;;;;;;;;;;5054389;28;20100;-37
2022/01/29 04:07:41;;;;;;;1.38;0.55;;;;;;;;;;5053018;28;20024;-37
2022/01/29 04:10:06;;;;;;;1.73;0.93;;;;;;;;;;5054222;28;20033;-37
2022/01/29 04:12:38;;;;;;;0.45;0.45;;;;;;;;;;5054326;28;20036;-37
2022/01/29 04:15:04;;;;;;;0.70;0.70;;;;;;;;;;5054173;28;20044;-37
2022/01/29 04:17:29;;;;;;;1.65;0.75;;;;;;;;;;5054075;28;20025;-37
2022/01/29 04:19:55;;;;;;;0.55;0.55;;;;;;;;;;5054526;28;20109;-37
2022/01/29 04:22:20;;;;;;;0.65;0.60;;;;;;;;;;5054216;28;20460;-37
2022/01/29 04:24:46;;;;;;;0.85;0.47;;;;;;;;;;5054277;28;20497;-37
2022/01/29 04:27:20;;;;;;;0.57;0.47;;;;;;;;;;5054129;28;20021;-37
2022/01/29 04:29:56;;;;;;;0.75;0.70;;;;;;;;;;5054077;28;20040;-37
2022/01/29 04:32:31;;;;;;;2.22;0.73;;;;;;;;;;5054115;28;20048;-37
2022/01/29 04:34:57;;;;;;;0.57;0.57;;;;;;;;;;5053836;28;20382;-37
2022/01/29 04:37:22;;;;;;;1.20;0.65;;;;;;;;;;5053653;28;20025;-37
2022/01/29 04:39:48;;;;;;;2.28;0.82;;;;;;;;;;5053716;28;20071;-37
2022/01/29 04:42:13;;;;;;;1.25;0.65;;;;;;;;;;5053429;28;20510;-37
2022/01/29 04:44:39;;;;;;;0.65;0.65;;;;;;;;;;5053644;28;20040;-37
2022/01/29 04:47:04;;;;;;;0.90;0.90;;;;;;;;;;5053876;28;20062;-37
2022/01/29 04:49:30;;;;;;;0.73;0.73;;;;;;;;;;5053456;28;20475;-37
2022/01/29 04:51:55;;;;;;;4.55;0.75;;;;;;;;;;5053751;28;20100;-37
2022/01/29 04:54:21;;;;;;;1.05;0.80;;;;;;;;;;5053738;28;20478;-37
2022/01/29 04:56:46;;;;;;;1.73;0.85;;;;;;;;;;5053304;28;20044;-37
2022/01/29 04:59:11;;;;;;;1.70;0.88;;;;;;;;;;5052049;28;20036;-37
2022/01/29 05:01:38;;;;;;;1.33;0.70;;;;;;;;;;5053390;28;20403;-37
2022/01/29 05:04:04;;;;;;;2.13;0.93;;;;;;;;;;5053189;28;20037;-37
2022/01/29 05:06:29;;;;;;;0.57;0.57;;;;;;;;;;5053455;28;20020;-37
2022/01/29 05:08:55;;;;;;;1.48;0.70;;;;;;;;;;5052921;28;20041;-37
2022/01/29 05:11:20;;;;;;;0.95;0.95;;;;;;;;;;5053039;28;20482;-37
2022/01/29 05:13:46;;;;;;;1.00;0.85;;;;;;;;;;5053204;28;20035;-37
2022/01/29 05:27:08;;;;;;;0.82;0.73;;;;;;;;;;5053045;28;20391;-37
2022/01/29 05:29:33;;;;;;;2.08;1.17;;;;;;;;;;5052807;28;20021;-37
2022/01/29 05:32:00;;;;;;;1.58;1.00;;;;;;;;;;5053017;28;20029;-37
2022/01/29 05:34:25;;;;;;;0.57;0.57;;;;;;;;;;5052898;28;20029;-37
2022/01/29 05:36:51;;;;;;;0.88;0.77;;;;;;;;;;5052841;28;20094;-37
2022/01/29 05:39:17;;;;;;;2.42;0.98;;;;;;;;;;5052561;28;20048;-37
2022/01/29 05:41:42;;;;;;;0.60;0.60;;;;;;;;;;5052544;28;20057;-37
2022/01/29 05:44:08;;;;;;;1.38;0.68;;;;;;;;;;5052469;28;20486;-37
2022/01/29 05:46:33;;;;;;;0.73;0.60;;;;;;;;;;5052653;28;20052;-37
2022/01/29 05:48:59;;;;;;;1.10;0.80;;;;;;;;;;5051112;28;20032;-37
2022/01/29 05:51:27;;;;;;;0.60;0.60;;;;;;;;;;5052720;28;20217;-37
2022/01/29 05:53:53;;;;;;;1.20;0.77;;;;;;;;;;5052348;28;20017;-37
2022/01/29 05:56:18;;;;;;;1.65;0.82;;;;;;;;;;5052431;28;20321;-37
2022/01/29 05:58:43;;;;;;;4.57;1.48;;;;;;;;;;5052532;28;20021;-37
2022/01/29 06:01:09;;;;;;;1.02;0.70;;;;;;;;;;5052058;28;20108;-37
2022/01/29 06:03:34;;;;;;;2.78;0.80;;;;;;;;;;5052120;28;20279;-37
2022/01/29 06:05:59;;;;;;;0.98;0.88;;;;;;;;;;5052078;28;20043;-37
2022/01/29 06:08:25;;;;;;;2.50;1.15;;;;;;;;;;5052261;28;20032;-37
2022/01/29 06:10:50;;;;;;;1.95;0.47;;;;;;;;;;5052044;28;20364;-36
2022/01/29 06:13:16;;;;;;;0.80;0.80;;;;;;;;;;5051951;28;20128;-37
2022/01/29 06:15:43;;;;;;;4.55;1.58;;;;;;;;;;5051883;28;20478;-37
2022/01/29 06:18:13;;;;;;;1.40;0.75;;;;;;;;;;5051933;28;20034;-37
2022/01/29 06:20:39;;;;;;;0.70;0.70;;;;;;;;;;5051042;28;20033;-37
2022/01/29 06:23:05;;;;;;;1.77;0.80;;;;;;;;;;5051977;28;20029;-37
2022/01/29 06:25:31;;;;;;;2.72;1.73;;;;;;;;;;5051548;28;20044;-37
2022/01/29 06:27:56;;;;;;;1.42;1.02;;;;;;;;;;5051720;28;20036;-37
2022/01/29 06:30:22;;;;;;;0.68;0.68;;;;;;;;;;5051627;28;20028;-37
2022/01/29 06:32:47;;;;;;;4.90;1.13;;;;;;;;;;5051659;28;20049;-37
2022/01/29 06:35:13;;;;;;;4.32;1.10;;;;;;;;;;5051503;28;20025;-37
2022/01/29 06:37:39;;;;;;;1.83;1.08;;;;;;;;;;5051497;28;20033;-37
2022/01/29 06:40:04;;;;;;;1.60;1.08;;;;;;;;;;5051506;28;20029;-37
2022/01/29 06:42:30;;;;;;;0.73;0.73;;;;;;;;;;5051180;28;20072;-37
2022/01/29 06:44:55;;;;;;;1.83;1.02;;;;;;;;;;5051355;28;20029;-36
2022/01/29 06:47:21;;;;;;;0.93;0.70;;;;;;;;;;5050031;28;20082;-36
2022/01/29 06:49:47;;;;;;;1.17;1.05;;;;;;;;;;5051148;28;20032;-36
2022/01/29 06:52:12;;;;;;;1.02;0.80;;;;;;;;;;5050974;28;20078;-37
2022/01/29 06:54:38;;;;;;;1.02;0.73;;;;;;;;;;5050129;28;20532;-36
2022/01/29 06:57:03;;;;;;;0.68;0.68;;;;;;;;;;5051149;28;20086;-37
2022/01/29 06:59:29;;;;;;;1.00;0.70;;;;;;;;;;5051382;28;20517;-37
2022/01/29 07:01:54;;;;;;;0.85;0.60;;;;;;;;;;5051276;28;20031;-37
2022/01/29 07:04:20;;;;;;;0.68;0.50;;;;;;;;;;5051020;28;20151;-37
2022/01/29 07:06:45;;;;;;;1.58;0.98;;;;;;;;;;5051404;28;20103;-36
2022/01/29 07:09:11;;;;;;;0.77;0.77;;;;;;;;;;5051347;28;20469;-37
2022/01/29 07:11:37;;;;;;;0.80;0.80;;;;;;;;;;5051400;28;20043;-37
2022/01/29 07:14:03;;;;;;;1.42;1.05;;;;;;;;;;5051086;28;20394;-37
2022/01/29 07:16:30;;;;;;;2.75;1.38;;;;;;;;;;5050888;28;20028;-37
2022/01/29 07:18:55;;;;;;;0.60;0.57;;;;;;;;;;5049843;28;20128;-37
2022/01/29 07:21:21;;;;;;;4.32;1.10;;;;;;;;;;5050899;28;20096;-37
2022/01/29 07:23:46;;;;;;;2.63;1.30;;;;;;;;;;5051005;28;20033;-36
2022/01/29 07:26:12;;;;;;;2.38;0.70;;;;;;;;;;5051026;28;20025;-37
2022/01/29 07:28:39;;;;;;;7.00;0.90;;;;;;;;;;5050941;28;20059;-37
2022/01/29 07:31:04;;;;;;;0.52;0.52;;;;;;;;;;5052276;28;20025;-37
2022/01/29 07:33:30;;;;;;;0.95;0.70;;;;;;;;;;5054818;28;20033;-37
2022/01/29 07:35:55;;;;;;;0.40;0.40;;;;;;;;;;5054812;28;20039;-37
2022/01/29 07:38:21;;;;;;;0.93;0.77;;;;;;;;;;5054846;28;20058;-37
2022/01/29 07:40:46;;;;;;;1.75;0.82;;;;;;;;;;5054515;28;20051;-37
2022/01/29 07:43:12;;;;;;;1.23;0.80;;;;;;;;;;5054758;28;20056;-36
2022/01/29 07:45:37;;;;;;;0.50;0.30;;;;;;;;;;5054633;28;20486;-36
2022/01/29 07:48:03;;;;;;;7.13;3.45;;;;;;;;;;5054902;28;20025;-37
2022/01/29 07:50:29;;;;;;;2.45;1.35;;;;;;;;;;5054631;28;20071;-37
2022/01/29 07:52:54;;;;;;;5.30;2.33;;;;;;;;;;5054931;28;20025;-37
2022/01/29 07:55:20;;;;;;;1.77;0.95;;;;;;;;;;5053090;28;20455;-37
2022/01/29 07:57:45;;;;;;;0.57;0.55;;;;;;;;;;5054535;28;20107;-37
2022/01/29 08:00:11;;;;;;;1.45;0.82;;;;;;;;;;5054403;28;20032;-37
2022/01/29 08:02:40;;;;;;;1.67;1.00;;;;;;;;;;5054671;28;20483;-37
2022/01/29 08:05:05;;;;;;;3.17;1.05;;;;;;;;;;5054601;28;20075;-37
2022/01/29 08:07:31;;;;;;;1.15;0.60;;;;;;;;;;5054302;28;20481;-37
2022/01/29 08:10:00;;;;;;;1.33;0.80;;;;;;;;;;5052807;28;20017;-37
2022/01/29 08:12:26;;;;;;;0.65;0.65;;;;;;;;;;5054189;28;20071;-37
2022/01/29 08:14:51;;;;;;;0.60;0.60;;;;;;;;;;5054285;28;20471;-37
2022/01/29 08:17:17;;;;;;;1.67;0.90;;;;;;;;;;5053951;28;20036;-37
2022/01/29 08:19:42;;;;;;;1.55;0.57;;;;;;;;;;5054450;28;20051;-37
2022/01/29 08:22:08;;;;;;;0.85;0.70;;;;;;;;;;5053975;28;20029;-37
2022/01/29 08:24:37;;;;;;;0.55;0.55;;;;;;;;;;5053981;28;20025;-37
2022/01/29 08:27:03;;;;;;;1.88;1.13;;;;;;;;;;5054219;28;20033;-36
2022/01/29 08:29:28;;;;;;;0.70;0.60;;;;;;;;;;5053898;28;20107;-36
2022/01/29 08:31:53;;;;;;;0.75;0.75;;;;;;;;;;5053873;28;20021;-37
2022/01/29 08:34:19;;;;;;;6.45;2.25;;;;;;;;;;5053834;28;20021;-36
2022/01/29 08:36:45;;;;;;;4.43;1.23;;;;;;;;;;5053734;28;20079;-37
2022/01/29 08:39:10;;;;;;;1.48;1.13;;;;;;;;;;5054013;28;20096;-37
2022/01/29 08:41:36;;;;;;;2.08;1.27;;;;;;;;;;5053456;28;20457;-37
2022/01/29 08:44:02;;;;;;;1.52;1.02;;;;;;;;;;5052859;28;20056;-37
2022/01/29 08:46:27;;;;;;;1.52;1.20;;;;;;;;;;5053831;28;20470;-37
2022/01/29 08:48:53;;;;;;;2.53;1.05;;;;;;;;;;5053573;28;20493;-37
2022/01/29 08:51:18;;;;;;;3.08;1.20;;;;;;;;;;5053356;28;20399;-36
2022/01/29 08:53:44;;;;;;;2.20;0.88;;;;;;;;;;5053447;28;20025;-37
2022/01/29 08:56:10;;;;;;;5.10;1.67;;;;;;;;;;5053629;28;20033;-37
2022/01/29 08:58:35;;;;;;;1.52;1.33;;;;;;;;;;5053568;28;20418;-37
2022/01/29 09:01:02;;;;;;;2.67;0.73;;;;;;;;;;5053591;28;20036;-37
2022/01/29 09:03:29;;;;;;;1.52;0.95;;;;;;;;;;5053167;28;20033;-37
2022/01/29 09:05:54;;;;;;;3.47;1.38;;;;;;;;;;5053166;28;20029;-37
2022/01/29 09:08:20;;;;;;;2.50;0.98;;;;;;;;;;5053393;28;20021;-37
2022/01/29 09:10:46;;;;;;;1.73;0.93;;;;;;;;;;5053124;28;20537;-37
2022/01/29 09:13:12;;;;;;;2.13;1.33;;;;;;;;;;5053352;28;20162;-37
2022/01/29 09:15:37;;;;;;;2.17;1.20;;;;;;;;;;5053351;28;20474;-37
2022/01/29 09:18:03;;;;;;;1.30;1.05;;;;;;;;;;5052991;28;20108;-37
2022/01/29 09:20:29;;;;;;;1.67;1.25;;;;;;;;;;5053115;28;20029;-37
2022/01/29 09:22:55;;;;;;;6.15;1.85;;;;;;;;;;5053126;28;20103;-37
2022/01/29 09:25:20;;;;;;;3.03;1.27;;;;;;;;;;5052762;28;20025;-37
2022/01/29 09:27:46;;;;;;;3.65;1.08;;;;;;;;;;5052789;28;20029;-37
2022/01/29 09:30:11;;;;;;;2.42;1.55;;;;;;;;;;5053091;28;20075;-37
2022/01/29 09:32:37;;;;;;;3.63;1.52;;;;;;;;;;5052612;28;20372;-37
2022/01/29 09:35:03;;;;;;;1.80;1.00;;;;;;;;;;5052866;28;20052;-38
2022/01/29 09:37:29;;;;;;;2.80;1.67;;;;;;;;;;5052521;28;20101;-37
2022/01/29 09:39:54;;;;;;;1.17;0.93;;;;;;;;;;5052917;28;20033;-37
2022/01/29 09:42:20;;;;;;;4.47;1.10;;;;;;;;;;5052247;28;20041;-37
2022/01/29 09:44:47;;;;;;;1.35;1.08;;;;;;;;;;5052841;28;20041;-37
2022/01/29 09:47:16;;;;;;;1.73;1.33;;;;;;;;;;5052307;28;20060;-37
2022/01/29 09:49:45;;;;;;;1.33;1.23;;;;;;;;;;5052344;28;20035;-37
2022/01/29 09:52:11;;;;;;;3.08;1.65;;;;;;;;;;5052572;28;20059;-37
2022/01/29 09:54:37;;;;;;;4.10;1.40;;;;;;;;;;5052189;28;20144;-37
2022/01/29 09:57:02;;;;;;;3.00;1.27;;;;;;;;;;5052679;28;20032;-37
2022/01/29 09:59:28;;;;;;;2.03;0.88;;;;;;;;;;5052434;28;20064;-37
2022/01/29 10:01:54;;;;;;;2.58;1.13;;;;;;;;;;5052139;28;20028;-37
2022/01/29 10:04:20;;;;;;;1.65;0.98;;;;;;;;;;5052244;28;20044;-37
2022/01/29 10:07:05;;;;;;;2.10;1.15;;;;;;;;;;5052154;28;20498;-37
2022/01/29 10:09:32;;;;;;;0.70;0.70;;;;;;;;;;5051876;28;20033;-37
2022/01/29 10:12:16;;;;;;;1.38;0.93;;;;;;;;;;5051992;28;20475;-37
2022/01/29 10:14:45;;;;;;;2.05;1.30;;;;;;;;;;5052023;28;20063;-37
2022/01/29 10:17:10;;;;;;;0.60;0.60;;;;;;;;;;5051813;28;20020;-37
2022/01/29 10:19:36;;;;;;;1.00;0.88;;;;;;;;;;5052074;28;20375;-37
2022/01/29 10:22:02;;;;;;;1.88;0.70;;;;;;;;;;5052100;28;20482;-37
2022/01/29 10:24:28;;;;;;;0.75;0.73;;;;;;;;;;5051837;28;20037;-37
2022/01/29 10:26:54;;;;;;;0.70;0.70;;;;;;;;;;5051592;28;20593;-37
2022/01/29 10:29:24;;;;;;;0.68;0.60;;;;;;;;;;5051597;28;20029;-37
2022/01/29 10:31:50;;;;;;;0.93;0.50;;;;;;;;;;5051992;28;20027;-37
2022/01/29 10:34:32;;;;;;;1.70;0.95;;;;;;;;;;5051651;28;20070;-37
2022/01/29 10:37:13;;;;;;;0.93;0.82;;;;;;;;;;5051760;28;20036;-37
2022/01/29 10:39:39;;;;;;;0.50;0.50;;;;;;;;;;5051726;28;20379;-37
2022/01/29 10:42:22;;;;;;;1.05;0.85;;;;;;;;;;5051274;28;20045;-42
2022/01/29 10:44:49;;;;;;;1.25;0.80;;;;;;;;;;5051448;28;20108;-38
2022/01/29 10:47:15;;;;;;;1.00;0.80;;;;;;;;;;5051338;28;20025;-37
2022/01/29 10:49:49;;;;;;;1.58;0.75;;;;;;;;;;5051368;28;20376;-37
2022/01/29 10:52:16;;;;;;;1.02;0.88;;;;;;;;;;5051323;28;20061;-37
2022/01/29 10:54:42;;;;;;;1.23;1.00;;;;;;;;;;5051310;28;20032;-37
2022/01/29 10:57:08;;;;;;;0.85;0.57;;;;;;;;;;5051268;28;20089;-37
2022/01/29 10:59:35;;;;;;;2.47;0.70;;;;;;;;;;5051289;28;20024;-37
2022/01/29 11:02:07;;;;;;;1.10;0.88;;;;;;;;;;5051299;28;20491;-37
2022/01/29 11:04:34;;;;;;;1.75;0.90;;;;;;;;;;5051450;28;20072;-37
2022/01/29 11:07:04;;;;;;;0.77;0.60;;;;;;;;;;5050910;28;20021;-37
2022/01/29 11:09:30;;;;;;;2.10;1.00;;;;;;;;;;5051080;28;20021;-37
2022/01/29 11:12:04;;;;;;;1.13;0.63;;;;;;;;;;5051481;28;20463;-37
2022/01/29 11:14:31;;;;;;;1.77;0.85;;;;;;;;;;5051235;28;20086;-37
2022/01/29 11:16:58;;;;;;;1.33;0.65;;;;;;;;;;5051154;28;20100;-37
2022/01/29 11:19:23;;;;;;;4.88;1.08;;;;;;;;;;5051057;28;20257;-37
2022/01/29 11:21:51;;;;;;;1.92;0.93;;;;;;;;;;5051303;28;20021;-37
2022/01/29 11:24:18;;;;;;;5.55;1.58;;;;;;;;;;5050894;28;20098;-37
2022/01/29 11:26:45;;;;;;;1.25;0.98;;;;;;;;;;5050951;28;20032;-37
2022/01/29 11:29:36;;;;;;;1.23;1.02;;;;;;;;;;5051210;28;20044;-37
2022/01/29 11:32:20;;;;;;;3.20;0.88;;;;;;;;;;5050735;28;20110;-37
2022/01/29 11:35:01;;;;;;;4.30;1.05;;;;;;;;;;5051468;28;20397;-37
2022/01/29 11:37:46;;;;;;;2.65;0.82;;;;;;;;;;5051145;28;20043;-37
2022/01/29 11:40:20;;;;;;;0.98;0.80;;;;;;;;;;5050954;28;20037;-37
2022/01/29 11:43:18;;;;;;;3.47;1.17;;;;;;;;;;5050593;28;20049;-37
2022/01/29 11:45:46;;;;;;;4.70;1.70;;;;;;;;;;5048844;28;20433;-37
2022/01/29 11:48:28;;;;;;;7.75;1.73;;;;;;;;;;5051160;28;20082;-36
2022/01/29 11:50:55;;;;;;;6.63;1.65;;;;;;;;;;5051053;28;20397;-37
2022/01/29 11:53:21;;;;;;;4.20;1.30;;;;;;;;;;5050659;28;20013;-37
2022/01/29 11:55:48;;;;;;;6.68;1.75;;;;;;;;;;5050695;28;20507;-37
2022/01/29 11:58:17;;;;;;;6.25;2.13;;;;;;;;;;5050677;28;20324;-37
2022/01/29 12:00:45;;;;;;;5.38;1.65;;;;;;;;;;5051049;28;20036;-37
2022/01/29 12:03:29;;;;;;;5.18;1.92;;;;;;;;;;5050519;28;20498;-37
2022/01/29 12:08:57;;;;;;;2.72;1.58;;;;;;;;;;5050610;28;20029;-37
2022/01/29 12:11:24;;;;;;;11.55;2.13;;;;;;;;;;5050849;28;20040;-37
2022/01/29 12:14:25;;;;;;;4.25;1.65;;;;;;;;;;5050887;28;20033;-37
2022/01/29 12:16:57;;;;;;;6.90;1.75;;;;;;;;;;5048145;28;20067;-37
2022/01/29 12:19:40;;;;;;;6.63;3.08;;;;;;;;;;5052775;28;20443;-37
2022/01/29 12:22:13;;;;;;;7.85;2.80;;;;;;;;;;5054168;28;20041;-37
2022/01/29 12:24:40;;;;;;;11.07;3.88;;;;;;;;;;5053884;28;20495;-37
2022/01/29 12:27:06;;;;;;;6.38;2.08;;;;;;;;;;5053939;28;20025;-37
2022/01/29 12:29:32;;;;;;;9.73;2.35;;;;;;;;;;5054394;28;20390;-37
2022/01/29 12:31:58;;;;;;;9.95;1.75;;;;;;;;;;5053899;28;20124;-37
2022/01/29 12:34:25;;;;;;;5.22;1.52;;;;;;;;;;5054049;28;20029;-37
2022/01/29 12:36:51;;;;;;;9.48;2.78;;;;;;;;;;5053772;28;20021;-37
2022/01/29 12:39:24;;;;;;;8.07;2.33;;;;;;;;;;5053681;28;20154;-37
2022/01/29 12:42:05;;;;;;;6.20;1.95;;;;;;;;;;5053668;28;20498;-37
2022/01/29 12:44:31;;;;;;;3.58;1.73;;;;;;;;;;5053521;28;20120;-37
2022/01/29 12:46:56;;;;;;;5.32;2.33;;;;;;;;;;5053499;28;20107;-37
2022/01/29 12:49:22;;;;;;;7.38;2.78;;;;;;;;;;5053574;28;20033;-37
2022/01/29 12:51:50;;;;;;;5.50;2.35;;;;;;;;;;5053820;28;20036;-37
2022/01/29 12:54:16;;;;;;;12.30;3.00;;;;;;;;;;5053401;28;20514;-37
2022/01/29 12:56:42;;;;;;;3.72;1.85;;;;;;;;;;5052438;28;20037;-37
2022/01/29 12:59:09;;;;;;;11.35;2.28;;;;;;;;;;5053289;28;20060;-37
2022/01/29 13:01:35;;;;;;;11.52;2.17;;;;;;;;;;5053523;28;20036;-37
2022/01/29 13:04:06;;;;;;;7.95;2.78;;;;;;;;;;5053221;28;20090;-37
2022/01/29 13:06:32;;;;;;;6.47;2.13;;;;;;;;;;5051875;28;20421;-37
2022/01/29 13:09:16;;;;;;;10.77;3.35;;;;;;;;;;5053591;28;20483;-37
2022/01/29 13:11:42;;;;;;;6.47;3.10;;;;;;;;;;5053111;28;20071;-37
2022/01/29 13:14:14;;;;;;;5.53;2.45;;;;;;;;;;5053420;28;20475;-37
2022/01/29 13:16:40;;;;;;;6.88;3.00;;;;;;;;;;5052789;28;20033;-37
2022/01/29 13:19:06;;;;;;;9.27;2.22;;;;;;;;;;5053413;28;20090;-37
2022/01/29 13:21:33;;;;;;;8.23;2.88;;;;;;;;;;5053151;28;20048;-37
2022/01/29 13:24:18;;;;;;;11.55;2.42;;;;;;;;;;5053160;28;20033;-37
2022/01/29 13:26:56;;;;;;;7.30;2.75;;;;;;;;;;5052765;28;20029;-37
2022/01/29 13:29:31;;;;;;;5.00;2.08;;;;;;;;;;5052381;28;20108;-37
2022/01/29 13:31:57;;;;;;;4.90;1.67;;;;;;;;;;5052869;28;20025;-37
2022/01/29 13:34:26;;;;;;;4.35;1.73;;;;;;;;;;5052747;28;20068;-37
2022/01/29 13:36:52;;;;;;;5.75;1.95;;;;;;;;;;5052512;28;20527;-37
2022/01/29 13:39:18;;;;;;;4.57;1.85;;;;;;;;;;5052615;28;20056;-37
2022/01/29 13:41:45;;;;;;;5.40;2.55;;;;;;;;;;5052406;28;20139;-37
2022/01/29 13:44:11;;;;;;;7.72;2.70;;;;;;;;;;5052293;28;20045;-37
2022/01/29 13:46:37;;;;;;;8.95;2.40;;;;;;;;;;5052318;28;20132;-37
2022/01/29 13:49:04;;;;;;;6.72;2.25;;;;;;;;;;5052726;28;20100;-37
2022/01/29 13:51:31;;;;;;;6.82;2.10;;;;;;;;;;5052291;28;20578;-37
2022/01/29 13:53:58;;;;;;;5.60;2.58;;;;;;;;;;5052370;28;20025;-37
2022/01/29 13:56:25;;;;;;;2.63;1.55;;;;;;;;;;5052478;28;20029;-37
2022/01/29 13:59:04;;;;;;;7.57;2.70;;;;;;;;;;5052164;28;20032;-37
2022/01/29 14:01:50;;;;;;;12.40;2.42;;;;;;;;;;5052179;28;20359;-37
2022/01/29 14:04:23;;;;;;;7.75;3.05;;;;;;;;;;5052306;28;20114;-37
2022/01/29 14:06:54;;;;;;;;;;;;;;;;;;5052614;28;20025;-37
2022/01/29 14:09:23;;;;;;;8.25;2.60;;;;;;;;;;5050668;28;20000;-37
2022/01/29 14:11:58;;;;;;;7.28;2.50;;;;;;;;;;5052047;28;20090;-37
2022/01/29 14:14:25;;;;;;;9.80;2.15;;;;;;;;;;5051819;28;20514;-37
2022/01/29 14:16:52;;;;;;;8.77;2.55;;;;;;;;;;5051983;28;20017;-37
2022/01/29 14:19:19;;;;;;;8.48;3.08;;;;;;;;;;5052154;28;20055;-37
2022/01/29 14:21:46;;;;;;;6.43;3.25;;;;;;;;;;5052131;28;20399;-37
2022/01/29 14:24:12;;;;;;;8.30;3.40;;;;;;;;;;5051688;28;20406;-37
2022/01/29 14:26:38;;;;;;;7.55;2.97;;;;;;;;;;5051521;28;20021;-37
2022/01/29 14:29:04;;;;;;;4.75;1.67;;;;;;;;;;5052033;28;20489;-37
2022/01/29 14:31:30;;;;;;;3.42;1.70;;;;;;;;;;5051649;28;20016;-37
2022/01/29 14:33:55;;;;;;;9.20;3.10;;;;;;;;;;5051583;28;20040;-37
2022/01/29 14:36:21;;;;;;;9.98;3.10;;;;;;;;;;5051492;28;20021;-37
2022/01/29 14:38:47;;;;;;;13.52;4.70;;;;;;;;;;5051520;28;20108;-37
2022/01/29 14:41:13;;;;;;;8.05;2.92;;;;;;;;;;5050829;28;20048;-37
2022/01/29 14:43:39;;;;;;;4.88;1.67;;;;;;;;;;5051351;28;20048;-37
2022/01/29 14:46:05;;;;;;;6.57;2.65;;;;;;;;;;5051447;28;20025;-37
2022/01/29 14:48:32;;;;;;;8.15;2.42;;;;;;;;;;5051530;28;20402;-37
2022/01/29 14:50:57;;;;;;;6.95;2.20;;;;;;;;;;5051406;28;20495;-38
2022/01/29 14:53:23;;;;;;;6.35;3.13;;;;;;;;;;5051364;28;20064;-37
2022/01/29 14:55:50;;;;;;;6.05;3.17;;;;;;;;;;5051399;28;20052;-37
2022/01/29 14:58:16;;;;;;;11.02;2.65;;;;;;;;;;5051307;28;20073;-37